sensor_id;sensor_type;location;lat;lon;timestamp;temperature;humidity
10276;DHT22;5183;51.190;6.820;2022-08-18T00:02:14;19.50;99.90
10276;DHT22;5183;51.190;6.820;2022-08-18T00:04:42;19.60;99.90
10276;DHT22;5183;51.190;6.820;2022-08-18T00:07:12;19.50;99.90
10276;DHT22;5183;51.190;6.820;2022-08-18T00:09:40;19.50;99.90
10276;DHT22;5183;51.190;6.820;2022-08-18T00:12:14;19.40;99.90
10276;DHT22;5183;51.190;6.820;2022-08-18T00:14:44;19.40;99.90
10276;DHT22;5183;51.190;6.820;2022-08-18T00:17:11;19.40;99.90
10276;DHT22;5183;51.190;6.820;2022-08-18T00:19:38;19.40;99.90
10276;DHT22;5183;51.190;6.820;2022-08-18T00:22:06;19.30;99.90
10276;DHT22;5183;51.190;6.820;2022-08-18T00:24:33;19.30;99.90
10276;DHT22;5183;51.190;6.820;2022-08-18T00:27:00;19.30;99.90
10276;DHT22;5183;51.190;6.820;2022-08-18T00:29:27;19.20;99.90
10276;DHT22;5183;51.190;6.820;2022-08-18T00:31:56;19.30;99.90
10276;DHT22;5183;51.190;6.820;2022-08-18T00:34:23;19.20;99.90
10276;DHT22;5183;51.190;6.820;2022-08-18T00:36:50;19.20;99.90
10276;DHT22;5183;51.190;6.820;2022-08-18T00:39:16;19.10;99.90
10276;DHT22;5183;51.190;6.820;2022-08-18T00:41:43;19.10;99.90
10276;DHT22;5183;51.190;6.820;2022-08-18T00:44:10;19.10;99.90
10276;DHT22;5183;51.190;6.820;2022-08-18T00:46:40;19.10;99.90
10276;DHT22;5183;51.190;6.820;2022-08-18T00:49:09;19.00;99.90
10276;DHT22;5183;51.190;6.820;2022-08-18T00:51:38;19.00;99.90
10276;DHT22;5183;51.190;6.820;2022-08-18T00:54:12;18.90;99.90
10276;DHT22;5183;51.190;6.820;2022-08-18T00:56:44;18.90;99.90
10276;DHT22;5183;51.190;6.820;2022-08-18T00:59:16;18.90;99.90
10276;DHT22;5183;51.190;6.820;2022-08-18T01:01:47;18.90;99.90
10276;DHT22;5183;51.190;6.820;2022-08-18T01:04:19;18.90;99.90
10276;DHT22;5183;51.190;6.820;2022-08-18T01:06:51;18.80;99.90
10276;DHT22;5183;51.190;6.820;2022-08-18T01:09:19;18.80;99.90
10276;DHT22;5183;51.190;6.820;2022-08-18T01:11:47;18.80;99.90
10276;DHT22;5183;51.190;6.820;2022-08-18T01:14:16;18.70;99.90
10276;DHT22;5183;51.190;6.820;2022-08-18T01:16:43;18.70;99.90
10276;DHT22;5183;51.190;6.820;2022-08-18T01:19:29;18.70;99.90
10276;DHT22;5183;51.190;6.820;2022-08-18T01:22:18;18.60;99.90
10276;DHT22;5183;51.190;6.820;2022-08-18T01:24:50;18.60;99.90
10276;DHT22;5183;51.190;6.820;2022-08-18T01:27:35;18.60;99.90
10276;DHT22;5183;51.190;6.820;2022-08-18T01:30:06;18.60;99.90
10276;DHT22;5183;51.190;6.820;2022-08-18T01:32:36;18.50;99.90
10276;DHT22;5183;51.190;6.820;2022-08-18T01:35:05;18.40;99.90
10276;DHT22;5183;51.190;6.820;2022-08-18T01:37:36;18.40;99.90
10276;DHT22;5183;51.190;6.820;2022-08-18T01:40:06;18.40;99.90
10276;DHT22;5183;51.190;6.820;2022-08-18T01:42:34;18.40;99.90
10276;DHT22;5183;51.190;6.820;2022-08-18T01:45:01;18.40;99.90
10276;DHT22;5183;51.190;6.820;2022-08-18T01:47:31;18.40;99.90
10276;DHT22;5183;51.190;6.820;2022-08-18T01:49:59;18.50;99.90
10276;DHT22;5183;51.190;6.820;2022-08-18T01:52:26;18.50;99.90
10276;DHT22;5183;51.190;6.820;2022-08-18T01:54:54;18.50;99.90
10276;DHT22;5183;51.190;6.820;2022-08-18T01:57:24;18.50;99.90
10276;DHT22;5183;51.190;6.820;2022-08-18T01:59:51;18.60;99.90
10276;DHT22;5183;51.190;6.820;2022-08-18T02:02:21;18.60;99.90
10276;DHT22;5183;51.190;6.820;2022-08-18T02:04:50;18.60;99.90
10276;DHT22;5183;51.190;6.820;2022-08-18T02:07:19;18.60;99.90
10276;DHT22;5183;51.190;6.820;2022-08-18T02:09:46;18.50;99.90
10276;DHT22;5183;51.190;6.820;2022-08-18T02:12:13;18.60;99.90
10276;DHT22;5183;51.190;6.820;2022-08-18T02:14:42;18.50;99.90
10276;DHT22;5183;51.190;6.820;2022-08-18T02:17:10;18.50;99.90
10276;DHT22;5183;51.190;6.820;2022-08-18T02:19:39;18.50;99.90
10276;DHT22;5183;51.190;6.820;2022-08-18T02:22:09;18.40;99.90
10276;DHT22;5183;51.190;6.820;2022-08-18T02:24:36;18.30;99.90
10276;DHT22;5183;51.190;6.820;2022-08-18T02:27:03;18.30;99.90
10276;DHT22;5183;51.190;6.820;2022-08-18T02:29:31;18.20;99.90
10276;DHT22;5183;51.190;6.820;2022-08-18T02:31:59;18.20;99.90
10276;DHT22;5183;51.190;6.820;2022-08-18T02:34:26;18.20;99.90
10276;DHT22;5183;51.190;6.820;2022-08-18T02:36:53;18.10;99.90
10276;DHT22;5183;51.190;6.820;2022-08-18T02:39:20;18.10;99.90
10276;DHT22;5183;51.190;6.820;2022-08-18T02:41:47;18.10;99.90
10276;DHT22;5183;51.190;6.820;2022-08-18T02:44:14;18.10;99.90
10276;DHT22;5183;51.190;6.820;2022-08-18T02:46:40;18.10;99.90
10276;DHT22;5183;51.190;6.820;2022-08-18T02:49:09;18.10;99.90
10276;DHT22;5183;51.190;6.820;2022-08-18T02:51:36;18.10;99.90
10276;DHT22;5183;51.190;6.820;2022-08-18T02:54:04;18.10;99.90
10276;DHT22;5183;51.190;6.820;2022-08-18T02:56:34;18.10;99.90
10276;DHT22;5183;51.190;6.820;2022-08-18T02:59:04;18.10;99.90
10276;DHT22;5183;51.190;6.820;2022-08-18T03:01:33;18.10;99.90
10276;DHT22;5183;51.190;6.820;2022-08-18T03:04:02;18.10;99.90
10276;DHT22;5183;51.190;6.820;2022-08-18T03:06:34;18.10;99.90
10276;DHT22;5183;51.190;6.820;2022-08-18T03:09:01;18.10;99.90
10276;DHT22;5183;51.190;6.820;2022-08-18T03:11:28;18.10;99.90
10276;DHT22;5183;51.190;6.820;2022-08-18T03:13:56;18.10;99.90
10276;DHT22;5183;51.190;6.820;2022-08-18T03:16:23;18.20;99.90
10276;DHT22;5183;51.190;6.820;2022-08-18T03:18:52;18.20;99.90
10276;DHT22;5183;51.190;6.820;2022-08-18T03:21:20;18.10;99.90
10276;DHT22;5183;51.190;6.820;2022-08-18T03:23:50;18.10;99.90
10276;DHT22;5183;51.190;6.820;2022-08-18T03:26:19;18.10;99.90
10276;DHT22;5183;51.190;6.820;2022-08-18T03:28:47;18.20;99.90
10276;DHT22;5183;51.190;6.820;2022-08-18T03:31:15;18.20;99.90
10276;DHT22;5183;51.190;6.820;2022-08-18T03:33:43;18.20;99.90
10276;DHT22;5183;51.190;6.820;2022-08-18T03:36:16;18.20;99.90
10276;DHT22;5183;51.190;6.820;2022-08-18T03:38:44;18.20;99.90
10276;DHT22;5183;51.190;6.820;2022-08-18T03:41:15;18.20;99.90
10276;DHT22;5183;51.190;6.820;2022-08-18T03:43:43;18.20;99.90
10276;DHT22;5183;51.190;6.820;2022-08-18T03:46:11;18.20;99.90
10276;DHT22;5183;51.190;6.820;2022-08-18T03:48:40;18.30;99.90
10276;DHT22;5183;51.190;6.820;2022-08-18T03:51:09;18.30;99.90
10276;DHT22;5183;51.190;6.820;2022-08-18T03:53:37;18.30;99.90
10276;DHT22;5183;51.190;6.820;2022-08-18T03:56:06;18.30;99.90
10276;DHT22;5183;51.190;6.820;2022-08-18T03:58:42;18.20;99.90
10276;DHT22;5183;51.190;6.820;2022-08-18T04:01:10;18.30;99.90
10276;DHT22;5183;51.190;6.820;2022-08-18T04:03:37;18.30;99.90
10276;DHT22;5183;51.190;6.820;2022-08-18T04:06:04;18.30;99.90
10276;DHT22;5183;51.190;6.820;2022-08-18T04:08:31;18.30;99.90
10276;DHT22;5183;51.190;6.820;2022-08-18T04:10:58;18.30;99.90
10276;DHT22;5183;51.190;6.820;2022-08-18T04:13:25;18.30;99.90
10276;DHT22;5183;51.190;6.820;2022-08-18T04:15:53;18.40;99.90
10276;DHT22;5183;51.190;6.820;2022-08-18T04:18:20;18.40;99.90
10276;DHT22;5183;51.190;6.820;2022-08-18T04:20:47;18.50;99.90
10276;DHT22;5183;51.190;6.820;2022-08-18T04:23:14;18.50;99.90
10276;DHT22;5183;51.190;6.820;2022-08-18T04:25:41;18.50;99.90
10276;DHT22;5183;51.190;6.820;2022-08-18T04:28:08;18.50;99.90
10276;DHT22;5183;51.190;6.820;2022-08-18T04:30:36;18.50;99.90
10276;DHT22;5183;51.190;6.820;2022-08-18T04:33:04;18.50;99.90
10276;DHT22;5183;51.190;6.820;2022-08-18T04:35:31;18.60;99.90
10276;DHT22;5183;51.190;6.820;2022-08-18T04:37:58;18.60;99.90
10276;DHT22;5183;51.190;6.820;2022-08-18T04:40:25;18.60;99.90
10276;DHT22;5183;51.190;6.820;2022-08-18T04:42:52;18.60;99.90
10276;DHT22;5183;51.190;6.820;2022-08-18T04:45:19;18.70;99.90
10276;DHT22;5183;51.190;6.820;2022-08-18T04:47:46;18.70;99.90
10276;DHT22;5183;51.190;6.820;2022-08-18T04:50:14;18.70;99.90
10276;DHT22;5183;51.190;6.820;2022-08-18T04:52:42;18.80;99.90
10276;DHT22;5183;51.190;6.820;2022-08-18T04:55:25;18.80;99.90
10276;DHT22;5183;51.190;6.820;2022-08-18T04:57:53;18.80;99.90
10276;DHT22;5183;51.190;6.820;2022-08-18T05:00:20;18.90;99.90
10276;DHT22;5183;51.190;6.820;2022-08-18T05:02:47;19.00;99.90
10276;DHT22;5183;51.190;6.820;2022-08-18T05:05:16;19.00;99.90
10276;DHT22;5183;51.190;6.820;2022-08-18T05:07:44;19.00;99.90
10276;DHT22;5183;51.190;6.820;2022-08-18T05:10:11;19.00;99.90
10276;DHT22;5183;51.190;6.820;2022-08-18T05:12:38;19.00;99.90
10276;DHT22;5183;51.190;6.820;2022-08-18T05:15:07;19.00;99.90
10276;DHT22;5183;51.190;6.820;2022-08-18T05:17:35;19.10;99.90
10276;DHT22;5183;51.190;6.820;2022-08-18T05:20:05;19.00;99.90
10276;DHT22;5183;51.190;6.820;2022-08-18T05:22:37;19.00;99.90
10276;DHT22;5183;51.190;6.820;2022-08-18T05:25:06;19.00;99.90
10276;DHT22;5183;51.190;6.820;2022-08-18T05:27:34;19.10;99.90
10276;DHT22;5183;51.190;6.820;2022-08-18T05:30:02;19.10;99.90
10276;DHT22;5183;51.190;6.820;2022-08-18T05:32:32;19.20;99.90
10276;DHT22;5183;51.190;6.820;2022-08-18T05:35:02;19.30;99.90
10276;DHT22;5183;51.190;6.820;2022-08-18T05:37:35;19.30;99.90
10276;DHT22;5183;51.190;6.820;2022-08-18T05:40:06;19.30;99.90
10276;DHT22;5183;51.190;6.820;2022-08-18T05:42:36;19.40;99.90
10276;DHT22;5183;51.190;6.820;2022-08-18T05:45:07;19.50;99.90
10276;DHT22;5183;51.190;6.820;2022-08-18T05:47:35;19.40;99.90
10276;DHT22;5183;51.190;6.820;2022-08-18T05:50:05;19.40;99.90
10276;DHT22;5183;51.190;6.820;2022-08-18T05:52:36;19.50;99.90
10276;DHT22;5183;51.190;6.820;2022-08-18T05:55:09;19.50;99.90
10276;DHT22;5183;51.190;6.820;2022-08-18T05:58:00;19.60;99.90
10276;DHT22;5183;51.190;6.820;2022-08-18T06:00:30;19.60;99.90
10276;DHT22;5183;51.190;6.820;2022-08-18T06:03:01;19.70;99.90
10276;DHT22;5183;51.190;6.820;2022-08-18T06:05:34;19.70;99.90
10276;DHT22;5183;51.190;6.820;2022-08-18T06:08:05;19.60;99.90
10276;DHT22;5183;51.190;6.820;2022-08-18T06:10:35;19.50;99.90
10276;DHT22;5183;51.190;6.820;2022-08-18T06:13:06;19.50;99.90
10276;DHT22;5183;51.190;6.820;2022-08-18T06:15:51;19.50;99.90
10276;DHT22;5183;51.190;6.820;2022-08-18T06:18:31;19.40;99.90
10276;DHT22;5183;51.190;6.820;2022-08-18T06:21:25;19.40;99.90
10276;DHT22;5183;51.190;6.820;2022-08-18T06:24:05;19.40;99.90
10276;DHT22;5183;51.190;6.820;2022-08-18T06:26:41;19.40;99.90
10276;DHT22;5183;51.190;6.820;2022-08-18T06:29:22;19.50;99.90
10276;DHT22;5183;51.190;6.820;2022-08-18T06:32:00;19.50;99.90
10276;DHT22;5183;51.190;6.820;2022-08-18T06:34:41;19.50;99.90
10276;DHT22;5183;51.190;6.820;2022-08-18T06:37:14;19.50;99.90
10276;DHT22;5183;51.190;6.820;2022-08-18T06:39:45;19.50;99.90
10276;DHT22;5183;51.190;6.820;2022-08-18T06:42:16;19.50;99.90
10276;DHT22;5183;51.190;6.820;2022-08-18T06:44:46;19.40;99.90
10276;DHT22;5183;51.190;6.820;2022-08-18T06:47:23;19.50;99.90
10276;DHT22;5183;51.190;6.820;2022-08-18T06:50:02;19.40;99.90
10276;DHT22;5183;51.190;6.820;2022-08-18T06:52:33;19.50;99.90
10276;DHT22;5183;51.190;6.820;2022-08-18T06:55:03;19.50;99.90
10276;DHT22;5183;51.190;6.820;2022-08-18T06:57:33;19.50;99.90
10276;DHT22;5183;51.190;6.820;2022-08-18T07:00:06;19.40;99.90
10276;DHT22;5183;51.190;6.820;2022-08-18T07:02:43;19.50;99.90
10276;DHT22;5183;51.190;6.820;2022-08-18T07:05:23;19.40;99.90
10276;DHT22;5183;51.190;6.820;2022-08-18T07:08:05;19.50;99.90
10276;DHT22;5183;51.190;6.820;2022-08-18T07:10:37;19.60;99.90
10276;DHT22;5183;51.190;6.820;2022-08-18T07:13:12;19.60;99.90
10276;DHT22;5183;51.190;6.820;2022-08-18T07:15:40;19.70;99.90
10276;DHT22;5183;51.190;6.820;2022-08-18T07:18:09;19.70;99.90
10276;DHT22;5183;51.190;6.820;2022-08-18T07:20:41;19.90;99.90
10276;DHT22;5183;51.190;6.820;2022-08-18T07:23:23;19.90;99.90
10276;DHT22;5183;51.190;6.820;2022-08-18T07:26:08;20.00;99.90
10276;DHT22;5183;51.190;6.820;2022-08-18T07:28:40;20.00;99.90
10276;DHT22;5183;51.190;6.820;2022-08-18T07:31:18;20.00;99.90
10276;DHT22;5183;51.190;6.820;2022-08-18T07:33:52;20.10;99.90
10276;DHT22;5183;51.190;6.820;2022-08-18T07:36:24;20.10;99.90
10276;DHT22;5183;51.190;6.820;2022-08-18T07:38:57;20.20;99.90
10276;DHT22;5183;51.190;6.820;2022-08-18T07:41:29;20.20;99.90
10276;DHT22;5183;51.190;6.820;2022-08-18T07:44:08;20.30;99.90
10276;DHT22;5183;51.190;6.820;2022-08-18T07:46:47;20.20;99.90
10276;DHT22;5183;51.190;6.820;2022-08-18T07:49:19;20.10;99.90
10276;DHT22;5183;51.190;6.820;2022-08-18T07:51:48;20.20;99.90
10276;DHT22;5183;51.190;6.820;2022-08-18T07:54:34;20.40;99.90
10276;DHT22;5183;51.190;6.820;2022-08-18T07:57:09;20.60;99.90
10276;DHT22;5183;51.190;6.820;2022-08-18T07:59:45;20.60;99.90
10276;DHT22;5183;51.190;6.820;2022-08-18T08:02:23;20.60;99.90
10276;DHT22;5183;51.190;6.820;2022-08-18T08:04:57;20.60;99.90
10276;DHT22;5183;51.190;6.820;2022-08-18T08:07:29;20.60;99.90
10276;DHT22;5183;51.190;6.820;2022-08-18T08:10:12;20.80;99.90
10276;DHT22;5183;51.190;6.820;2022-08-18T08:12:51;20.90;99.90
10276;DHT22;5183;51.190;6.820;2022-08-18T08:15:26;21.10;99.90
10276;DHT22;5183;51.190;6.820;2022-08-18T08:18:05;21.10;40.20
10276;DHT22;5183;51.190;6.820;2022-08-18T08:20:39;21.30;34.50
10276;DHT22;5183;51.190;6.820;2022-08-18T08:23:15;21.40;21.30
10276;DHT22;5183;51.190;6.820;2022-08-18T08:25:54;21.60;17.40
10276;DHT22;5183;51.190;6.820;2022-08-18T08:28:35;21.70;11.70
10276;DHT22;5183;51.190;6.820;2022-08-18T08:31:13;21.80;5.90
10276;DHT22;5183;51.190;6.820;2022-08-18T08:33:48;22.00;1.00
10276;DHT22;5183;51.190;6.820;2022-08-18T08:36:21;22.10;1.00
10276;DHT22;5183;51.190;6.820;2022-08-18T08:38:53;22.40;1.00
10276;DHT22;5183;51.190;6.820;2022-08-18T08:41:30;22.60;1.00
10276;DHT22;5183;51.190;6.820;2022-08-18T08:44:05;22.60;1.00
10276;DHT22;5183;51.190;6.820;2022-08-18T08:46:41;22.80;1.00
10276;DHT22;5183;51.190;6.820;2022-08-18T08:49:21;22.90;1.00
10276;DHT22;5183;51.190;6.820;2022-08-18T08:51:55;22.80;1.00
10276;DHT22;5183;51.190;6.820;2022-08-18T08:54:26;22.70;1.00
10276;DHT22;5183;51.190;6.820;2022-08-18T08:56:57;22.90;1.00
10276;DHT22;5183;51.190;6.820;2022-08-18T08:59:25;23.30;1.00
10276;DHT22;5183;51.190;6.820;2022-08-18T09:02:02;23.30;1.00
10276;DHT22;5183;51.190;6.820;2022-08-18T09:04:41;23.40;1.00
10276;DHT22;5183;51.190;6.820;2022-08-18T09:07:26;23.40;1.00
10276;DHT22;5183;51.190;6.820;2022-08-18T09:13:14;23.30;1.00
10276;DHT22;5183;51.190;6.820;2022-08-18T09:16:06;23.20;1.00
10276;DHT22;5183;51.190;6.820;2022-08-18T09:18:53;23.30;1.00
10276;DHT22;5183;51.190;6.820;2022-08-18T09:21:34;23.50;1.00
10276;DHT22;5183;51.190;6.820;2022-08-18T09:24:14;23.60;1.00
10276;DHT22;5183;51.190;6.820;2022-08-18T09:26:48;23.50;1.00
10276;DHT22;5183;51.190;6.820;2022-08-18T09:29:23;23.80;1.00
10276;DHT22;5183;51.190;6.820;2022-08-18T09:35:12;23.90;1.00
10276;DHT22;5183;51.190;6.820;2022-08-18T09:37:46;23.80;1.00
10276;DHT22;5183;51.190;6.820;2022-08-18T09:40:36;23.70;1.00
10276;DHT22;5183;51.190;6.820;2022-08-18T09:43:32;23.50;1.00
10276;DHT22;5183;51.190;6.820;2022-08-18T09:46:00;23.40;1.00
10276;DHT22;5183;51.190;6.820;2022-08-18T09:48:31;23.40;1.00
10276;DHT22;5183;51.190;6.820;2022-08-18T09:51:31;23.40;1.00
10276;DHT22;5183;51.190;6.820;2022-08-18T09:54:19;23.60;1.00
10276;DHT22;5183;51.190;6.820;2022-08-18T09:57:14;23.50;1.00
10276;DHT22;5183;51.190;6.820;2022-08-18T10:03:12;23.70;1.00
10276;DHT22;5183;51.190;6.820;2022-08-18T10:05:54;23.60;1.00
10276;DHT22;5183;51.190;6.820;2022-08-18T10:08:54;23.80;1.00
10276;DHT22;5183;51.190;6.820;2022-08-18T10:11:36;24.10;1.00
10276;DHT22;5183;51.190;6.820;2022-08-18T10:14:26;24.50;1.00
10276;DHT22;5183;51.190;6.820;2022-08-18T10:16:59;24.70;1.00
10276;DHT22;5183;51.190;6.820;2022-08-18T10:19:35;24.80;1.00
10276;DHT22;5183;51.190;6.820;2022-08-18T10:22:07;25.00;1.00
10276;DHT22;5183;51.190;6.820;2022-08-18T10:24:40;25.00;1.00
10276;DHT22;5183;51.190;6.820;2022-08-18T10:27:46;24.90;1.00
10276;DHT22;5183;51.190;6.820;2022-08-18T10:29:58;24.80;1.00
10276;DHT22;5183;51.190;6.820;2022-08-18T10:32:37;24.80;1.00
10276;DHT22;5183;51.190;6.820;2022-08-18T10:35:05;24.60;1.00
10276;DHT22;5183;51.190;6.820;2022-08-18T10:37:54;24.50;1.00
10276;DHT22;5183;51.190;6.820;2022-08-18T10:40:22;24.50;1.00
10276;DHT22;5183;51.190;6.820;2022-08-18T10:42:54;24.60;1.00
10276;DHT22;5183;51.190;6.820;2022-08-18T10:45:28;24.90;1.00
10276;DHT22;5183;51.190;6.820;2022-08-18T10:48:06;25.10;1.00
10276;DHT22;5183;51.190;6.820;2022-08-18T10:50:38;25.10;1.00
10276;DHT22;5183;51.190;6.820;2022-08-18T10:53:15;25.00;1.00
10276;DHT22;5183;51.190;6.820;2022-08-18T10:55:48;25.20;1.00
10276;DHT22;5183;51.190;6.820;2022-08-18T10:58:27;25.40;1.00
10276;DHT22;5183;51.190;6.820;2022-08-18T11:04:04;25.80;1.00
10276;DHT22;5183;51.190;6.820;2022-08-18T11:06:38;25.90;1.00
10276;DHT22;5183;51.190;6.820;2022-08-18T11:09:08;26.00;1.00
10276;DHT22;5183;51.190;6.820;2022-08-18T11:11:38;26.20;1.00
10276;DHT22;5183;51.190;6.820;2022-08-18T11:14:20;26.20;1.00
10276;DHT22;5183;51.190;6.820;2022-08-18T11:16:56;26.10;1.00
10276;DHT22;5183;51.190;6.820;2022-08-18T11:19:26;26.10;1.00
10276;DHT22;5183;51.190;6.820;2022-08-18T11:21:54;26.30;1.00
10276;DHT22;5183;51.190;6.820;2022-08-18T11:24:24;26.50;1.00
10276;DHT22;5183;51.190;6.820;2022-08-18T11:26:53;26.70;1.00
10276;DHT22;5183;51.190;6.820;2022-08-18T11:29:38;26.80;1.00
10276;DHT22;5183;51.190;6.820;2022-08-18T11:32:08;26.90;1.00
10276;DHT22;5183;51.190;6.820;2022-08-18T11:34:41;26.60;1.00
10276;DHT22;5183;51.190;6.820;2022-08-18T11:37:20;26.40;1.00
10276;DHT22;5183;51.190;6.820;2022-08-18T11:39:51;26.60;1.00
10276;DHT22;5183;51.190;6.820;2022-08-18T11:42:26;26.70;1.00
10276;DHT22;5183;51.190;6.820;2022-08-18T11:44:54;26.70;1.00
10276;DHT22;5183;51.190;6.820;2022-08-18T11:47:21;26.80;1.00
10276;DHT22;5183;51.190;6.820;2022-08-18T11:49:55;26.70;1.00
10276;DHT22;5183;51.190;6.820;2022-08-18T11:52:25;26.60;1.00
10276;DHT22;5183;51.190;6.820;2022-08-18T11:55:01;26.50;1.00
10276;DHT22;5183;51.190;6.820;2022-08-18T11:57:48;26.80;1.00
10276;DHT22;5183;51.190;6.820;2022-08-18T12:00:39;26.80;1.00
10276;DHT22;5183;51.190;6.820;2022-08-18T12:03:11;26.80;1.00
10276;DHT22;5183;51.190;6.820;2022-08-18T12:05:46;26.80;1.00
10276;DHT22;5183;51.190;6.820;2022-08-18T12:08:19;27.00;1.00
10276;DHT22;5183;51.190;6.820;2022-08-18T12:11:01;26.80;1.00
10276;DHT22;5183;51.190;6.820;2022-08-18T12:13:28;26.60;1.00
10276;DHT22;5183;51.190;6.820;2022-08-18T12:16:15;26.70;1.00
10276;DHT22;5183;51.190;6.820;2022-08-18T12:18:44;26.60;1.00
10276;DHT22;5183;51.190;6.820;2022-08-18T12:21:11;26.50;1.00
10276;DHT22;5183;51.190;6.820;2022-08-18T12:23:39;26.40;1.00
10276;DHT22;5183;51.190;6.820;2022-08-18T12:26:11;26.20;1.00
10276;DHT22;5183;51.190;6.820;2022-08-18T12:28:38;25.80;1.00
10276;DHT22;5183;51.190;6.820;2022-08-18T12:31:05;25.70;1.00
10276;DHT22;5183;51.190;6.820;2022-08-18T12:33:32;25.60;1.00
10276;DHT22;5183;51.190;6.820;2022-08-18T12:36:00;25.50;1.00
10276;DHT22;5183;51.190;6.820;2022-08-18T12:38:27;25.50;1.00
10276;DHT22;5183;51.190;6.820;2022-08-18T12:40:54;25.50;1.00
10276;DHT22;5183;51.190;6.820;2022-08-18T12:43:23;25.50;1.00
10276;DHT22;5183;51.190;6.820;2022-08-18T12:45:49;25.40;1.00
10276;DHT22;5183;51.190;6.820;2022-08-18T12:48:17;25.30;1.00
10276;DHT22;5183;51.190;6.820;2022-08-18T12:50:44;25.30;1.00
10276;DHT22;5183;51.190;6.820;2022-08-18T12:53:11;25.30;1.00
10276;DHT22;5183;51.190;6.820;2022-08-18T12:55:41;25.50;1.00
10276;DHT22;5183;51.190;6.820;2022-08-18T12:58:08;25.70;1.00
10276;DHT22;5183;51.190;6.820;2022-08-18T13:00:38;25.90;1.00
10276;DHT22;5183;51.190;6.820;2022-08-18T13:03:06;26.10;1.00
10276;DHT22;5183;51.190;6.820;2022-08-18T13:05:33;26.20;1.00
10276;DHT22;5183;51.190;6.820;2022-08-18T13:08:03;26.50;1.00
10276;DHT22;5183;51.190;6.820;2022-08-18T13:10:30;26.80;1.00
10276;DHT22;5183;51.190;6.820;2022-08-18T13:12:57;27.10;1.00
10276;DHT22;5183;51.190;6.820;2022-08-18T13:15:24;27.40;1.00
10276;DHT22;5183;51.190;6.820;2022-08-18T13:17:53;27.70;1.00
10276;DHT22;5183;51.190;6.820;2022-08-18T13:20:20;27.90;1.00
10276;DHT22;5183;51.190;6.820;2022-08-18T13:22:47;28.10;1.00
10276;DHT22;5183;51.190;6.820;2022-08-18T13:25:15;27.90;1.00
10276;DHT22;5183;51.190;6.820;2022-08-18T13:27:42;27.80;1.00
10276;DHT22;5183;51.190;6.820;2022-08-18T13:30:13;27.80;1.00
10276;DHT22;5183;51.190;6.820;2022-08-18T13:32:40;28.00;1.00
10276;DHT22;5183;51.190;6.820;2022-08-18T13:35:10;28.00;1.00
10276;DHT22;5183;51.190;6.820;2022-08-18T13:37:37;28.10;1.00
10276;DHT22;5183;51.190;6.820;2022-08-18T13:40:06;28.00;1.00
10276;DHT22;5183;51.190;6.820;2022-08-18T13:42:41;27.90;1.00
10276;DHT22;5183;51.190;6.820;2022-08-18T13:45:09;27.90;1.00
10276;DHT22;5183;51.190;6.820;2022-08-18T13:47:36;27.80;1.00
10276;DHT22;5183;51.190;6.820;2022-08-18T13:50:05;27.80;1.00
10276;DHT22;5183;51.190;6.820;2022-08-18T13:52:33;27.60;1.00
10276;DHT22;5183;51.190;6.820;2022-08-18T13:55:00;27.60;1.00
10276;DHT22;5183;51.190;6.820;2022-08-18T13:57:28;27.50;1.00
10276;DHT22;5183;51.190;6.820;2022-08-18T13:59:56;27.60;1.00
10276;DHT22;5183;51.190;6.820;2022-08-18T14:02:23;27.70;1.00
10276;DHT22;5183;51.190;6.820;2022-08-18T14:04:50;28.00;1.00
10276;DHT22;5183;51.190;6.820;2022-08-18T14:07:20;28.40;1.00
10276;DHT22;5183;51.190;6.820;2022-08-18T14:09:48;28.40;1.00
10276;DHT22;5183;51.190;6.820;2022-08-18T14:12:18;28.40;1.00
10276;DHT22;5183;51.190;6.820;2022-08-18T14:14:45;28.30;1.00
10276;DHT22;5183;51.190;6.820;2022-08-18T14:17:12;28.50;1.00
10276;DHT22;5183;51.190;6.820;2022-08-18T14:19:39;28.50;1.00
10276;DHT22;5183;51.190;6.820;2022-08-18T14:22:23;28.80;1.00
10276;DHT22;5183;51.190;6.820;2022-08-18T14:25:09;29.10;1.00
10276;DHT22;5183;51.190;6.820;2022-08-18T14:27:53;29.30;1.00
10276;DHT22;5183;51.190;6.820;2022-08-18T14:30:20;29.20;1.00
10276;DHT22;5183;51.190;6.820;2022-08-18T14:32:47;29.00;1.00
10276;DHT22;5183;51.190;6.820;2022-08-18T14:35:14;28.90;1.00
10276;DHT22;5183;51.190;6.820;2022-08-18T14:37:41;28.80;1.00
10276;DHT22;5183;51.190;6.820;2022-08-18T14:40:11;28.90;1.00
10276;DHT22;5183;51.190;6.820;2022-08-18T14:42:38;29.00;1.00
10276;DHT22;5183;51.190;6.820;2022-08-18T14:45:08;28.90;1.00
10276;DHT22;5183;51.190;6.820;2022-08-18T14:47:36;28.80;1.00
10276;DHT22;5183;51.190;6.820;2022-08-18T14:50:03;28.70;1.00
10276;DHT22;5183;51.190;6.820;2022-08-18T14:52:30;28.70;1.00
10276;DHT22;5183;51.190;6.820;2022-08-18T14:54:57;28.90;1.00
10276;DHT22;5183;51.190;6.820;2022-08-18T14:57:25;29.00;1.00
10276;DHT22;5183;51.190;6.820;2022-08-18T14:59:52;29.10;1.00
10276;DHT22;5183;51.190;6.820;2022-08-18T15:02:20;29.00;1.00
10276;DHT22;5183;51.190;6.820;2022-08-18T15:04:47;28.90;1.00
10276;DHT22;5183;51.190;6.820;2022-08-18T15:07:13;29.20;1.00
10276;DHT22;5183;51.190;6.820;2022-08-18T15:09:40;29.10;1.00
10276;DHT22;5183;51.190;6.820;2022-08-18T15:12:07;28.80;1.00
10276;DHT22;5183;51.190;6.820;2022-08-18T15:14:36;28.60;1.00
10276;DHT22;5183;51.190;6.820;2022-08-18T15:17:04;28.40;1.00
10276;DHT22;5183;51.190;6.820;2022-08-18T15:19:31;28.40;1.00
10276;DHT22;5183;51.190;6.820;2022-08-18T15:21:58;28.40;1.00
10276;DHT22;5183;51.190;6.820;2022-08-18T15:24:43;28.40;1.00
10276;DHT22;5183;51.190;6.820;2022-08-18T15:27:32;28.50;1.00
10276;DHT22;5183;51.190;6.820;2022-08-18T15:30:04;28.70;1.00
10276;DHT22;5183;51.190;6.820;2022-08-18T15:32:32;28.90;1.00
10276;DHT22;5183;51.190;6.820;2022-08-18T15:34:59;29.10;1.00
10276;DHT22;5183;51.190;6.820;2022-08-18T15:37:26;29.30;1.00
10276;DHT22;5183;51.190;6.820;2022-08-18T15:39:59;29.50;1.00
10276;DHT22;5183;51.190;6.820;2022-08-18T15:42:26;29.80;1.00
10276;DHT22;5183;51.190;6.820;2022-08-18T15:44:54;29.90;1.00
10276;DHT22;5183;51.190;6.820;2022-08-18T15:47:22;30.10;1.00
10276;DHT22;5183;51.190;6.820;2022-08-18T15:49:49;30.30;1.00
10276;DHT22;5183;51.190;6.820;2022-08-18T15:52:16;30.40;1.00
10276;DHT22;5183;51.190;6.820;2022-08-18T15:54:43;30.50;1.00
10276;DHT22;5183;51.190;6.820;2022-08-18T15:57:10;30.60;1.00
10276;DHT22;5183;51.190;6.820;2022-08-18T15:59:38;30.70;1.00
10276;DHT22;5183;51.190;6.820;2022-08-18T16:02:05;30.70;1.00
10276;DHT22;5183;51.190;6.820;2022-08-18T16:04:33;30.60;1.00
10276;DHT22;5183;51.190;6.820;2022-08-18T16:07:04;30.50;1.00
10276;DHT22;5183;51.190;6.820;2022-08-18T16:09:31;30.50;1.00
10276;DHT22;5183;51.190;6.820;2022-08-18T16:11:58;30.40;1.00
10276;DHT22;5183;51.190;6.820;2022-08-18T16:14:27;30.30;1.00
10276;DHT22;5183;51.190;6.820;2022-08-18T16:16:54;30.20;1.00
10276;DHT22;5183;51.190;6.820;2022-08-18T16:19:21;30.00;1.00
10276;DHT22;5183;51.190;6.820;2022-08-18T16:21:49;29.80;1.00
10276;DHT22;5183;51.190;6.820;2022-08-18T16:24:16;29.70;1.00
10276;DHT22;5183;51.190;6.820;2022-08-18T16:26:43;29.70;1.00
10276;DHT22;5183;51.190;6.820;2022-08-18T16:29:10;29.70;1.00
10276;DHT22;5183;51.190;6.820;2022-08-18T16:31:37;29.70;1.00
10276;DHT22;5183;51.190;6.820;2022-08-18T16:34:05;29.60;1.00